createdAt,value
2018-08-23T00:00:18.257Z,0
2018-08-23T00:01:19.885Z,0
2018-08-23T00:02:21.309Z,0
2018-08-23T00:03:22.747Z,0
2018-08-23T00:04:24.216Z,0
2018-08-23T00:05:26.026Z,0
2018-08-23T00:06:27.432Z,0
2018-08-23T00:07:29.350Z,0
2018-08-23T00:08:30.784Z,0
2018-08-23T00:09:32.178Z,0
2018-08-23T00:10:33.710Z,0
2018-08-23T00:11:35.087Z,0
2018-08-23T00:12:36.485Z,0
2018-08-23T00:13:37.988Z,0
2018-08-23T00:14:39.396Z,0
2018-08-23T00:15:40.794Z,0
2018-08-23T00:16:42.377Z,0
2018-08-23T00:17:43.718Z,0
2018-08-23T00:18:45.190Z,0
2018-08-23T00:19:46.600Z,0
2018-08-23T00:20:48.081Z,0
2018-08-23T00:21:49.509Z,0
2018-08-23T00:22:50.972Z,0
2018-08-23T00:23:52.375Z,0
2018-08-23T00:24:53.941Z,0
2018-08-23T00:25:55.349Z,0
2018-08-23T00:26:56.960Z,0
2018-08-23T00:27:58.326Z,0
2018-08-23T00:28:59.805Z,0
2018-08-23T00:30:01.230Z,0
2018-08-23T00:31:02.637Z,0
2018-08-23T00:32:04.187Z,0
2018-08-23T00:33:05.585Z,0
2018-08-23T00:34:06.995Z,0
2018-08-23T00:35:08.443Z,0
2018-08-23T00:36:09.853Z,0
2018-08-23T00:37:11.293Z,0
2018-08-23T00:38:12.780Z,0
2018-08-23T00:39:14.203Z,0
2018-08-23T00:40:15.613Z,0
2018-08-23T00:41:17.084Z,0
2018-08-23T00:42:18.487Z,0
2018-08-23T00:43:19.979Z,0
2018-08-23T00:44:21.368Z,0
2018-08-23T00:45:22.764Z,0
2018-08-23T00:46:24.315Z,0
2018-08-23T00:47:25.719Z,0
2018-08-23T00:48:27.113Z,0
2018-08-23T00:49:28.609Z,0
2018-08-23T00:50:30.024Z,0
2018-08-23T00:51:31.430Z,0
2018-08-23T00:52:32.930Z,0
2018-08-23T00:53:34.353Z,0
2018-08-23T00:54:35.813Z,0
2018-08-23T00:55:37.210Z,0
2018-08-23T00:56:38.693Z,0
2018-08-23T00:57:40.100Z,0
2018-08-23T00:58:41.607Z,0
2018-08-23T00:59:43.012Z,0
2018-08-23T01:00:44.436Z,0
2018-08-23T01:01:46.190Z,0
2018-08-23T01:02:47.632Z,0
2018-08-23T01:03:49.041Z,0
2018-08-23T01:04:50.627Z,0
2018-08-23T01:05:52.055Z,0
2018-08-23T01:06:53.458Z,0
2018-08-23T01:07:54.985Z,0
2018-08-23T01:08:56.380Z,0
2018-08-23T01:09:57.784Z,0
2018-08-23T01:10:59.268Z,0
2018-08-23T01:12:00.678Z,0
2018-08-23T01:13:02.095Z,0
2018-08-23T01:14:03.590Z,0
2018-08-23T01:15:04.990Z,0
2018-08-23T01:16:06.397Z,0
2018-08-23T01:17:07.932Z,0
2018-08-23T01:18:09.315Z,0
2018-08-23T01:19:10.719Z,0
2018-08-23T01:20:12.288Z,0
2018-08-23T01:21:13.689Z,0
2018-08-23T01:22:15.124Z,0
2018-08-23T01:23:16.659Z,0
2018-08-23T01:24:18.056Z,0
2018-08-23T01:25:19.460Z,0
2018-08-23T01:26:20.984Z,0
2018-08-23T01:27:22.436Z,0
2018-08-23T01:28:24.455Z,0
2018-08-23T01:29:25.891Z,0
2018-08-23T01:30:27.567Z,0
2018-08-23T01:31:28.980Z,0
2018-08-23T01:32:30.679Z,0
2018-08-23T01:33:32.086Z,0
2018-08-23T01:34:33.794Z,0
2018-08-23T01:35:35.199Z,0
2018-08-23T01:36:36.603Z,0
2018-08-23T01:37:38.254Z,0
2018-08-23T01:38:39.715Z,0
2018-08-23T01:39:41.169Z,0
2018-08-23T01:40:42.781Z,0
2018-08-23T01:41:44.231Z,0
2018-08-23T01:42:45.640Z,0
2018-08-23T01:43:47.337Z,0
2018-08-23T01:44:48.745Z,0
2018-08-23T01:45:50.145Z,0
2018-08-23T01:46:51.847Z,0
2018-08-23T01:47:53.270Z,0
2018-08-23T01:48:54.715Z,0
2018-08-23T01:49:56.360Z,0
2018-08-23T01:50:57.760Z,0
2018-08-23T01:51:59.184Z,0
2018-08-23T01:53:00.890Z,0
2018-08-23T01:54:02.362Z,0
2018-08-23T01:55:03.799Z,0
2018-08-23T01:56:05.447Z,0
2018-08-23T01:57:06.854Z,0
2018-08-23T01:58:08.258Z,0
2018-08-23T01:59:10.397Z,0
2018-08-23T02:00:11.795Z,0
2018-08-23T02:01:13.213Z,0
2018-08-23T02:02:14.942Z,0
2018-08-23T02:03:16.440Z,0
2018-08-23T02:04:17.928Z,0
2018-08-23T02:05:19.678Z,0
2018-08-23T02:06:21.219Z,0
2018-08-23T02:07:22.752Z,0
2018-08-23T02:08:24.535Z,0
2018-08-23T02:09:25.984Z,0
2018-08-23T02:10:27.745Z,0
2018-08-23T02:11:29.384Z,0
2018-08-23T02:12:31.025Z,0
2018-08-23T02:13:32.578Z,0
2018-08-23T02:14:34.331Z,0
2018-08-23T02:15:35.977Z,0
2018-08-23T02:16:37.779Z,0
2018-08-23T02:17:39.247Z,0
2018-08-23T02:18:40.959Z,0
2018-08-23T02:19:42.475Z,0
2018-08-23T02:20:44.221Z,0
2018-08-23T02:21:45.816Z,0
2018-08-23T02:22:47.353Z,0
2018-08-23T02:23:49.233Z,0
2018-08-23T02:24:50.806Z,0
2018-08-23T02:25:52.380Z,0
2018-08-23T02:26:54.092Z,0
2018-08-23T02:27:55.604Z,0
2018-08-23T02:28:57.326Z,0
2018-08-23T02:29:58.843Z,0
2018-08-23T02:31:00.744Z,0
2018-08-23T02:32:02.227Z,0
2018-08-23T02:33:03.729Z,0
2018-08-23T02:34:05.387Z,0
2018-08-23T02:35:06.940Z,0
2018-08-23T02:36:09.197Z,0
2018-08-23T02:37:10.922Z,0
2018-08-23T02:38:12.518Z,0
2018-08-23T02:39:14.012Z,0
2018-08-23T02:40:15.548Z,0
2018-08-23T02:41:17.221Z,0
2018-08-23T02:42:18.715Z,0
2018-08-23T02:43:20.767Z,0
2018-08-23T02:44:22.293Z,0
2018-08-23T02:45:24.118Z,0
2018-08-23T02:46:25.699Z,0
2018-08-23T02:47:27.155Z,0
2018-08-23T02:48:28.785Z,0
2018-08-23T02:49:30.299Z,0
2018-08-23T02:50:31.786Z,0
2018-08-23T02:51:33.912Z,0
2018-08-23T02:52:35.449Z,0
2018-08-23T02:53:36.861Z,0
2018-08-23T02:54:38.428Z,0
2018-08-23T02:55:39.906Z,0
2018-08-23T02:56:41.561Z,0
2018-08-23T02:57:42.991Z,0
2018-08-23T02:58:44.464Z,0
2018-08-23T02:59:46.321Z,0
2018-08-23T03:00:48.254Z,0
2018-08-23T03:01:49.745Z,0
2018-08-23T03:02:51.380Z,0
2018-08-23T03:03:52.890Z,0
2018-08-23T03:04:54.482Z,0
2018-08-23T03:05:55.978Z,0
2018-08-23T03:06:57.653Z,0
2018-08-23T03:07:59.204Z,0
2018-08-23T03:09:00.733Z,0
2018-08-23T03:10:02.554Z,0
2018-08-23T03:11:04.062Z,0
2018-08-23T03:12:05.598Z,0
2018-08-23T03:13:07.245Z,0
2018-08-23T03:14:08.819Z,0
2018-08-23T03:15:10.337Z,0
2018-08-23T03:16:12.029Z,0
2018-08-23T03:17:13.575Z,0
2018-08-23T03:18:15.110Z,0
2018-08-23T03:19:16.805Z,0
2018-08-23T03:20:18.321Z,0
2018-08-23T03:21:19.857Z,0
2018-08-23T03:22:21.649Z,0
2018-08-23T03:23:23.378Z,0
2018-08-23T03:24:24.962Z,0
2018-08-23T03:25:26.622Z,0
2018-08-23T03:26:28.203Z,0
2018-08-23T03:27:29.828Z,0
2018-08-23T03:28:31.551Z,0
2018-08-23T03:29:33.456Z,0
2018-08-23T03:30:35.308Z,0
2018-08-23T03:31:36.839Z,0
2018-08-23T03:32:38.551Z,0
2018-08-23T03:33:40.244Z,0
2018-08-23T03:34:42.045Z,0
2018-08-23T03:35:43.473Z,0
2018-08-23T03:36:45.078Z,0
2018-08-23T03:37:46.502Z,0
2018-08-23T03:38:48.136Z,0
2018-08-23T03:39:49.549Z,0
2018-08-23T03:40:52.961Z,0
2018-08-23T03:41:57.583Z,0
2018-08-23T03:43:01.159Z,0
2018-08-23T03:44:02.784Z,0
2018-08-23T03:45:05.437Z,0
2018-08-23T03:46:06.862Z,0
2018-08-23T03:47:08.538Z,0
2018-08-23T03:48:10.160Z,0
2018-08-23T03:49:11.581Z,0
2018-08-23T03:50:13.268Z,0
2018-08-23T03:51:14.927Z,0
2018-08-23T03:52:16.478Z,0
2018-08-23T03:53:18.186Z,0
2018-08-23T03:54:19.727Z,0
2018-08-23T03:55:21.342Z,0
2018-08-23T03:56:23.197Z,0
2018-08-23T03:57:24.706Z,0
2018-08-23T03:58:26.279Z,0
2018-08-23T03:59:28.134Z,0
2018-08-23T04:00:29.684Z,0
2018-08-23T04:01:31.248Z,0
2018-08-23T04:02:33.111Z,0
2018-08-23T04:03:34.629Z,0
2018-08-23T04:05:22.288Z,0
2018-08-23T04:06:23.670Z,0
2018-08-23T04:07:25.061Z,0
2018-08-23T04:08:26.569Z,0
2018-08-23T04:09:27.968Z,0
2018-08-23T04:10:29.375Z,0
2018-08-23T04:11:30.885Z,0
2018-08-23T04:12:32.673Z,0
2018-08-23T04:13:34.117Z,0
2018-08-23T04:14:35.661Z,0
2018-08-23T04:15:37.094Z,0
2018-08-23T04:16:38.720Z,0
2018-08-23T04:17:40.145Z,0
2018-08-23T04:18:41.857Z,0
2018-08-23T04:19:43.286Z,0
2018-08-23T04:20:44.924Z,0
2018-08-23T04:21:46.341Z,0
2018-08-23T04:22:48.012Z,0
2018-08-23T04:23:49.387Z,0
2018-08-23T04:24:52.325Z,0
2018-08-23T04:25:53.754Z,0
2018-08-23T04:26:55.364Z,0
2018-08-23T04:27:56.804Z,0
2018-08-23T04:28:59.091Z,0
2018-08-23T04:30:00.756Z,0
2018-08-23T04:31:02.156Z,0
2018-08-23T04:32:03.685Z,0
2018-08-23T04:33:05.675Z,0
2018-08-23T04:34:07.102Z,0
2018-08-23T04:35:09.069Z,0
2018-08-23T04:36:10.434Z,0
2018-08-23T04:37:12.022Z,0
2018-08-23T04:38:13.436Z,0
2018-08-23T04:39:15.101Z,0
2018-08-23T04:40:16.512Z,0
2018-08-23T04:41:19.021Z,0
2018-08-23T04:42:20.429Z,5
2018-08-23T04:43:22.165Z,5
2018-08-23T04:44:23.501Z,5
2018-08-23T04:45:24.908Z,5
2018-08-23T04:46:26.424Z,5
2018-08-23T04:47:27.823Z,5
2018-08-23T04:48:29.229Z,5
2018-08-23T04:49:30.777Z,5
2018-08-23T04:50:32.246Z,5
2018-08-23T04:51:34.131Z,5
2018-08-23T04:52:35.674Z,5
2018-08-23T04:53:37.477Z,5
2018-08-23T04:54:38.868Z,5
2018-08-23T04:55:40.409Z,5
2018-08-23T04:56:41.802Z,10
2018-08-23T04:57:43.546Z,10
2018-08-23T04:58:44.950Z,10
2018-08-23T04:59:46.661Z,10
2018-08-23T05:00:48.246Z,10
2018-08-23T05:01:49.664Z,10
2018-08-23T05:02:51.088Z,10
2018-08-23T05:03:52.765Z,10
2018-08-23T05:04:54.612Z,10
2018-08-23T05:05:56.250Z,15
2018-08-23T05:06:58.060Z,15
2018-08-23T05:07:59.535Z,15
2018-08-23T05:09:00.965Z,15
2018-08-23T05:10:02.371Z,15
2018-08-23T05:11:03.856Z,15
2018-08-23T05:12:05.262Z,15
2018-08-23T05:13:06.678Z,20
2018-08-23T05:14:08.206Z,20
2018-08-23T05:15:09.586Z,20
2018-08-23T05:16:10.997Z,20
2018-08-23T05:17:12.498Z,20
2018-08-23T05:18:13.911Z,20
2018-08-23T05:19:15.326Z,25
2018-08-23T05:20:16.812Z,25
2018-08-23T05:21:18.227Z,25
2018-08-23T05:22:19.696Z,25
2018-08-23T05:23:21.195Z,25
2018-08-23T05:24:22.790Z,30
2018-08-23T05:25:24.575Z,30
2018-08-23T05:26:26.077Z,30
2018-08-23T05:27:27.490Z,30
2018-08-23T05:28:29.183Z,30
2018-08-23T05:29:30.979Z,35
2018-08-23T05:30:32.394Z,35
2018-08-23T05:31:33.905Z,35
2018-08-23T05:32:35.329Z,35
2018-08-23T05:33:36.788Z,35
2018-08-23T05:34:38.421Z,40
2018-08-23T05:35:39.831Z,40
2018-08-23T05:36:41.507Z,40
2018-08-23T05:37:42.914Z,40
2018-08-23T05:38:44.387Z,40
2018-08-23T05:39:45.789Z,40
2018-08-23T05:40:47.264Z,40
2018-08-23T05:41:48.671Z,40
2018-08-23T05:42:50.150Z,40
2018-08-23T05:43:51.703Z,40
2018-08-23T05:44:53.235Z,40
2018-08-23T05:45:55.028Z,40
2018-08-23T05:46:56.570Z,45
2018-08-23T05:47:57.982Z,45
2018-08-23T05:48:59.689Z,45
2018-08-23T05:50:01.494Z,45
2018-08-23T05:51:03.103Z,45
2018-08-23T05:52:06.182Z,50
2018-08-23T05:53:07.935Z,50
2018-08-23T05:54:09.824Z,55
2018-08-23T05:55:11.426Z,55
2018-08-23T05:56:12.913Z,55
2018-08-23T05:57:40.838Z,60
2018-08-23T05:58:42.307Z,60
2018-08-23T05:59:43.722Z,65
2018-08-23T06:00:45.124Z,65
2018-08-23T06:01:46.793Z,65
2018-08-23T06:02:48.214Z,70
2018-08-23T06:03:49.674Z,70
2018-08-23T06:04:51.086Z,75
2018-08-23T06:05:52.494Z,80
2018-08-23T06:06:53.904Z,80
2018-08-23T06:07:55.307Z,80
2018-08-23T06:08:56.886Z,80
2018-08-23T06:09:58.303Z,80
2018-08-23T06:10:59.708Z,80
2018-08-23T06:12:01.198Z,80
2018-08-23T06:13:02.607Z,75
2018-08-23T06:14:04.054Z,75
2018-08-23T06:15:05.952Z,70
2018-08-23T06:16:07.246Z,75
2018-08-23T06:17:08.658Z,70
2018-08-23T06:18:10.255Z,70
2018-08-23T06:19:11.658Z,70
2018-08-23T06:20:13.075Z,70
2018-08-23T06:21:14.576Z,75
2018-08-23T06:22:15.983Z,80
2018-08-23T06:23:17.454Z,80
2018-08-23T06:24:18.863Z,80
2018-08-23T06:25:20.274Z,80
2018-08-23T06:26:21.778Z,85
2018-08-23T06:27:23.223Z,85
2018-08-23T06:28:24.618Z,85
2018-08-23T06:29:26.099Z,90
2018-08-23T06:30:27.500Z,85
2018-08-23T06:31:28.919Z,90
2018-08-23T06:32:30.369Z,95
2018-08-23T06:33:31.999Z,95
2018-08-23T06:34:33.305Z,100
2018-08-23T06:35:34.851Z,100
2018-08-23T06:36:36.226Z,100
2018-08-23T06:37:37.828Z,105
2018-08-23T06:38:39.279Z,110
2018-08-23T06:39:40.661Z,110
2018-08-23T06:40:42.150Z,110
2018-08-23T06:41:43.556Z,105
2018-08-23T06:42:44.958Z,100
2018-08-23T06:43:46.469Z,95
2018-08-23T06:44:47.872Z,105
2018-08-23T06:45:49.279Z,105
2018-08-23T06:46:50.790Z,110
2018-08-23T06:47:52.208Z,110
2018-08-23T06:48:53.678Z,110
2018-08-23T06:49:55.150Z,120
2018-08-23T06:50:56.574Z,115
2018-08-23T06:51:57.980Z,125
2018-08-23T06:52:59.637Z,125
2018-08-23T06:54:01.053Z,125
2018-08-23T06:55:02.459Z,125
2018-08-23T06:56:03.956Z,135
2018-08-23T06:57:05.362Z,135
2018-08-23T06:58:06.770Z,140
2018-08-23T06:59:08.277Z,135
2018-08-23T07:00:09.712Z,140
2018-08-23T07:01:11.118Z,140
2018-08-23T07:02:12.611Z,145
2018-08-23T07:03:14.028Z,140
2018-08-23T07:04:15.434Z,145
2018-08-23T07:05:16.985Z,150
2018-08-23T07:06:18.371Z,150
2018-08-23T07:07:19.777Z,150
2018-08-23T07:08:21.244Z,150
2018-08-23T07:09:23.039Z,155
2018-08-23T07:10:24.440Z,160
2018-08-23T07:11:25.979Z,155
2018-08-23T07:12:27.380Z,160
2018-08-23T07:13:28.892Z,160
2018-08-23T07:14:30.293Z,160
2018-08-23T07:15:31.702Z,160
2018-08-23T07:16:33.384Z,160
2018-08-23T07:17:34.832Z,160
2018-08-23T07:18:36.232Z,160
2018-08-23T07:19:37.700Z,160
2018-08-23T07:20:39.112Z,165
2018-08-23T07:21:40.551Z,165
2018-08-23T07:22:42.026Z,165
2018-08-23T07:23:43.423Z,165
2018-08-23T07:24:44.833Z,170
2018-08-23T07:25:46.349Z,175
2018-08-23T07:26:47.808Z,175
2018-08-23T07:27:49.432Z,175
2018-08-23T07:28:50.837Z,175
2018-08-23T07:29:52.657Z,180
2018-08-23T07:30:54.004Z,185
2018-08-23T07:31:55.602Z,200
2018-08-23T07:32:57.063Z,185
2018-08-23T07:33:58.479Z,165
2018-08-23T07:34:59.895Z,190
2018-08-23T07:36:01.311Z,190
2018-08-23T07:37:02.804Z,180
2018-08-23T07:38:04.213Z,180
2018-08-23T07:39:05.627Z,180
2018-08-23T07:40:07.120Z,200
2018-08-23T07:41:08.534Z,190
2018-08-23T07:42:09.963Z,190
2018-08-23T07:43:11.878Z,190
2018-08-23T07:44:13.231Z,200
2018-08-23T07:45:14.636Z,200
2018-08-23T07:46:16.175Z,190
2018-08-23T07:47:17.587Z,200
2018-08-23T07:48:19.382Z,210
2018-08-23T07:49:21.931Z,205
2018-08-23T07:50:23.367Z,145
2018-08-23T07:51:24.787Z,200
2018-08-23T07:52:26.305Z,210
2018-08-23T07:53:27.798Z,210
2018-08-23T07:54:29.479Z,190
2018-08-23T07:55:30.986Z,215
2018-08-23T07:56:32.391Z,215
2018-08-23T07:57:33.808Z,215
2018-08-23T07:58:35.305Z,225
2018-08-23T07:59:36.721Z,160
2018-08-23T08:00:38.187Z,230
2018-08-23T08:01:39.602Z,225
2018-08-23T08:02:41.026Z,210
2018-08-23T08:03:42.514Z,215
2018-08-23T08:04:43.925Z,220
2018-08-23T08:05:45.339Z,205
2018-08-23T08:06:46.830Z,190
2018-08-23T08:07:48.261Z,215
2018-08-23T08:08:49.671Z,215
2018-08-23T08:09:51.094Z,225
2018-08-23T08:10:52.499Z,230
2018-08-23T08:11:53.909Z,225
2018-08-23T08:12:55.374Z,225
2018-08-23T08:13:56.777Z,235
2018-08-23T08:14:58.427Z,235
2018-08-23T08:15:59.760Z,245
2018-08-23T08:17:01.236Z,250
2018-08-23T08:18:02.642Z,260
2018-08-23T08:19:04.109Z,265
2018-08-23T08:20:05.526Z,250
2018-08-23T08:21:07.053Z,240
2018-08-23T08:22:08.639Z,255
2018-08-23T08:23:10.048Z,235
2018-08-23T08:24:11.465Z,245
2018-08-23T08:25:12.998Z,240
2018-08-23T08:26:14.914Z,250
2018-08-23T08:27:16.350Z,285
2018-08-23T08:28:17.897Z,295
2018-08-23T08:29:19.319Z,250
2018-08-23T08:30:20.722Z,240
2018-08-23T08:31:22.234Z,240
2018-08-23T08:32:23.659Z,245
2018-08-23T08:33:25.066Z,230
2018-08-23T08:34:26.543Z,185
2018-08-23T08:35:27.949Z,300
2018-08-23T08:36:29.355Z,285
2018-08-23T08:37:30.861Z,280
2018-08-23T08:38:32.274Z,310
2018-08-23T08:39:33.746Z,295
2018-08-23T08:40:35.303Z,300
2018-08-23T08:41:36.817Z,335
2018-08-23T08:42:38.287Z,325
2018-08-23T08:43:39.915Z,320
2018-08-23T08:44:41.321Z,295
2018-08-23T08:45:42.791Z,200
2018-08-23T08:46:44.215Z,240
2018-08-23T08:47:45.618Z,140
2018-08-23T08:48:47.116Z,160
2018-08-23T08:49:48.523Z,305
2018-08-23T08:50:49.962Z,305
2018-08-23T08:51:51.437Z,315
2018-08-23T08:52:52.843Z,300
2018-08-23T08:53:54.317Z,300
2018-08-23T08:54:55.729Z,330
2018-08-23T08:55:57.197Z,360
2018-08-23T08:56:58.667Z,370
2018-08-23T08:58:00.007Z,375
2018-08-23T08:59:01.541Z,455
2018-08-23T09:00:02.956Z,340
2018-08-23T09:01:04.364Z,335
2018-08-23T09:02:05.841Z,385
2018-08-23T09:03:07.294Z,370
2018-08-23T09:04:08.663Z,375
2018-08-23T09:05:10.544Z,320
2018-08-23T09:06:11.948Z,265
2018-08-23T09:07:13.365Z,330
2018-08-23T09:08:14.896Z,345
2018-08-23T09:09:16.302Z,325
2018-08-23T09:10:17.779Z,365
2018-08-23T09:11:19.223Z,370
2018-08-23T09:12:20.633Z,365
2018-08-23T09:13:22.097Z,205
2018-08-23T09:14:23.530Z,270
2018-08-23T09:15:24.926Z,325
2018-08-23T09:16:26.808Z,350
2018-08-23T09:17:28.218Z,320
2018-08-23T09:18:29.631Z,290
2018-08-23T09:19:31.149Z,285
2018-08-23T09:20:32.629Z,315
2018-08-23T09:21:33.975Z,345
2018-08-23T09:22:35.469Z,325
2018-08-23T09:23:36.931Z,315
2018-08-23T09:24:38.568Z,300
2018-08-23T09:25:39.968Z,265
2018-08-23T09:26:41.442Z,240
2018-08-23T09:27:42.859Z,170
2018-08-23T09:28:44.266Z,245
2018-08-23T09:29:45.770Z,260
2018-08-23T09:30:47.168Z,255
2018-08-23T09:31:48.572Z,285
2018-08-23T09:32:50.089Z,230
2018-08-23T09:33:51.503Z,280
2018-08-23T09:34:52.984Z,285
2018-08-23T09:35:54.385Z,265
2018-08-23T09:36:55.844Z,255
2018-08-23T09:37:57.278Z,280
2018-08-23T09:38:58.724Z,255
2018-08-23T09:40:00.138Z,205
2018-08-23T09:41:01.605Z,235
2018-08-23T09:42:03.029Z,265
2018-08-23T09:43:04.501Z,255
2018-08-23T09:44:05.928Z,265
2018-08-23T09:45:07.345Z,280
2018-08-23T09:46:08.758Z,280
2018-08-23T09:47:10.248Z,300
2018-08-23T09:48:11.663Z,320
2018-08-23T09:49:13.132Z,285
2018-08-23T09:50:14.613Z,265
2018-08-23T09:51:16.089Z,270
2018-08-23T09:52:17.539Z,295
2018-08-23T09:53:18.908Z,300
2018-08-23T09:54:20.313Z,300
2018-08-23T09:55:22.181Z,305
2018-08-23T09:56:23.589Z,310
2018-08-23T09:57:24.999Z,360
2018-08-23T09:58:26.896Z,310
2018-08-23T09:59:28.295Z,310
2018-08-23T10:00:29.704Z,345
2018-08-23T10:01:31.230Z,255
2018-08-23T10:02:32.639Z,280
2018-08-23T10:03:34.048Z,350
2018-08-23T10:04:35.603Z,335
2018-08-23T10:05:36.984Z,330
2018-08-23T10:06:38.423Z,270
2018-08-23T10:07:39.903Z,230
2018-08-23T10:08:41.306Z,315
2018-08-23T10:09:42.953Z,340
2018-08-23T10:10:44.368Z,480
2018-08-23T10:11:45.909Z,750
2018-08-23T10:12:47.332Z,865
2018-08-23T10:13:48.925Z,250
2018-08-23T10:14:50.348Z,175
2018-08-23T10:15:51.809Z,335
2018-08-23T10:16:53.219Z,205
2018-08-23T10:17:54.691Z,150
2018-08-23T10:18:56.101Z,150
2018-08-23T10:19:57.565Z,350
2018-08-23T10:20:58.977Z,320
2018-08-23T10:22:01.414Z,350
2018-08-23T10:23:02.826Z,350
2018-08-23T10:24:04.361Z,705
2018-08-23T10:25:05.772Z,640
2018-08-23T10:26:07.213Z,425
2018-08-23T10:27:08.612Z,485
2018-08-23T10:28:10.113Z,415
2018-08-23T10:29:11.530Z,330
2018-08-23T10:30:12.928Z,315
2018-08-23T10:31:15.033Z,310
2018-08-23T10:32:16.532Z,345
2018-08-23T10:33:17.858Z,245
2018-08-23T10:34:19.379Z,230
2018-08-23T10:35:20.810Z,295
2018-08-23T10:36:22.256Z,230
2018-08-23T10:37:23.666Z,170
2018-08-23T10:38:25.140Z,165
2018-08-23T10:39:26.547Z,255
2018-08-23T10:40:28.026Z,170
2018-08-23T10:41:29.431Z,170
2018-08-23T10:42:30.899Z,270
2018-08-23T10:43:32.307Z,260
2018-08-23T10:44:33.731Z,270
2018-08-23T10:45:35.421Z,295
2018-08-23T10:46:36.833Z,285
2018-08-23T10:47:38.237Z,255
2018-08-23T10:48:39.756Z,300
2018-08-23T10:49:41.159Z,285
2018-08-23T10:50:42.614Z,275
2018-08-23T10:51:44.065Z,265
2018-08-23T10:52:45.455Z,255
2018-08-23T10:53:46.864Z,250
2018-08-23T10:54:48.386Z,250
2018-08-23T10:55:49.799Z,250
2018-08-23T10:56:51.207Z,270
2018-08-23T10:57:52.712Z,330
2018-08-23T10:58:54.130Z,315
2018-08-23T10:59:55.533Z,285
2018-08-23T11:00:57.045Z,280
2018-08-23T11:01:58.441Z,270
2018-08-23T11:02:59.854Z,275
2018-08-23T11:04:01.352Z,250
2018-08-23T11:05:02.758Z,275
2018-08-23T11:06:04.165Z,190
2018-08-23T11:07:05.677Z,540
2018-08-23T11:08:07.089Z,460
2018-08-23T11:09:08.551Z,395
2018-08-23T11:10:09.993Z,330
2018-08-23T11:11:11.770Z,200
2018-08-23T11:12:13.277Z,295
2018-08-23T11:13:14.695Z,225
2018-08-23T11:14:16.167Z,210
2018-08-23T11:15:17.579Z,205
2018-08-23T11:16:19.048Z,205
2018-08-23T11:17:20.464Z,190
2018-08-23T11:18:21.860Z,205
2018-08-23T11:19:23.384Z,150
2018-08-23T11:20:24.792Z,195
2018-08-23T11:21:26.197Z,335
2018-08-23T11:22:27.709Z,325
2018-08-23T11:23:29.107Z,310
2018-08-23T11:24:30.522Z,300
2018-08-23T11:25:32.010Z,300
2018-08-23T11:26:33.475Z,285
2018-08-23T11:27:34.870Z,285
2018-08-23T11:28:36.331Z,295
2018-08-23T11:29:37.791Z,270
2018-08-23T11:30:39.213Z,255
2018-08-23T11:31:40.619Z,250
2018-08-23T11:32:42.095Z,240
2018-08-23T11:33:43.502Z,245
2018-08-23T11:34:44.913Z,235
2018-08-23T11:35:46.422Z,225
2018-08-23T11:36:47.829Z,195
2018-08-23T11:37:49.239Z,225
2018-08-23T11:38:50.740Z,220
2018-08-23T11:39:52.545Z,210
2018-08-23T11:40:54.032Z,230
2018-08-23T11:41:55.466Z,225
2018-08-23T11:42:56.909Z,200
2018-08-23T11:43:58.319Z,165
2018-08-23T11:44:59.728Z,140
2018-08-23T11:46:01.267Z,280
2018-08-23T11:47:02.709Z,285
2018-08-23T11:48:04.064Z,165
2018-08-23T11:49:05.613Z,185
2018-08-23T11:50:07.070Z,265
2018-08-23T11:51:08.641Z,190
2018-08-23T11:52:10.093Z,230
2018-08-23T11:53:11.754Z,245
2018-08-23T11:54:13.182Z,275
2018-08-23T11:55:14.838Z,270
2018-08-23T11:56:16.242Z,165
2018-08-23T11:57:17.690Z,140
2018-08-23T11:58:19.132Z,265
2018-08-23T11:59:20.573Z,260
2018-08-23T12:00:21.981Z,190
2018-08-23T12:01:23.454Z,140
2018-08-23T12:02:24.865Z,160
2018-08-23T12:03:26.336Z,235
2018-08-23T12:04:27.746Z,245
2018-08-23T12:05:29.215Z,235
2018-08-23T12:06:30.647Z,220
2018-08-23T12:07:32.096Z,225
2018-08-23T12:08:33.501Z,235
2018-08-23T12:09:34.978Z,230
2018-08-23T12:10:36.388Z,225
2018-08-23T12:11:37.839Z,195
2018-08-23T12:12:39.300Z,175
2018-08-23T12:13:40.709Z,200
2018-08-23T12:14:42.124Z,180
2018-08-23T12:15:43.656Z,170
2018-08-23T12:16:45.419Z,195
2018-08-23T12:17:46.944Z,185
2018-08-23T12:18:48.331Z,205
2018-08-23T12:19:49.738Z,150
2018-08-23T12:20:51.231Z,140
2018-08-23T12:21:52.667Z,170
2018-08-23T12:22:54.074Z,195
2018-08-23T12:23:55.585Z,170
2018-08-23T12:24:56.988Z,185
2018-08-23T12:25:58.502Z,200
2018-08-23T12:26:59.872Z,190
2018-08-23T12:28:01.288Z,210
2018-08-23T12:29:02.712Z,205
2018-08-23T12:30:04.265Z,200
2018-08-23T12:31:05.723Z,235
2018-08-23T12:32:07.280Z,190
2018-08-23T12:33:08.695Z,165
2018-08-23T12:34:10.164Z,180
2018-08-23T12:35:11.591Z,215
2018-08-23T12:36:13.047Z,220
2018-08-23T12:37:14.834Z,180
2018-08-23T12:38:16.352Z,170
2018-08-23T12:39:17.736Z,180
2018-08-23T12:40:19.156Z,180
2018-08-23T12:41:20.660Z,220
2018-08-23T12:42:22.088Z,220
2018-08-23T12:43:23.496Z,175
2018-08-23T12:44:24.991Z,145
2018-08-23T12:45:26.400Z,115
2018-08-23T12:46:27.880Z,120
2018-08-23T12:47:29.274Z,165
2018-08-23T12:48:30.738Z,175
2018-08-23T12:49:32.170Z,155
2018-08-23T12:50:33.553Z,185
2018-08-23T12:51:35.065Z,200
2018-08-23T12:52:36.473Z,205
2018-08-23T12:53:37.877Z,200
2018-08-23T12:54:39.472Z,170
2018-08-23T12:55:40.842Z,145
2018-08-23T12:56:42.495Z,145
2018-08-23T12:57:43.889Z,145
2018-08-23T12:58:45.344Z,155
2018-08-23T12:59:46.752Z,145
2018-08-23T13:00:48.160Z,145
2018-08-23T13:01:49.676Z,120
2018-08-23T13:02:51.122Z,130
2018-08-23T13:03:52.559Z,135
2018-08-23T13:04:53.991Z,190
2018-08-23T13:05:55.397Z,175
2018-08-23T13:06:56.839Z,150
2018-08-23T13:07:58.335Z,145
2018-08-23T13:08:59.746Z,135
2018-08-23T13:10:01.165Z,150
2018-08-23T13:11:03.027Z,175
2018-08-23T13:12:04.429Z,165
2018-08-23T13:13:05.832Z,140
2018-08-23T13:14:07.462Z,125
2018-08-23T13:15:08.881Z,150
2018-08-23T13:16:10.295Z,185
2018-08-23T13:17:11.978Z,160
2018-08-23T13:18:13.449Z,145
2018-08-23T13:19:15.001Z,135
2018-08-23T13:20:16.392Z,120
2018-08-23T13:21:17.858Z,115
2018-08-23T13:22:19.272Z,110
2018-08-23T13:23:20.748Z,110
2018-08-23T13:24:22.159Z,110
2018-08-23T13:25:23.567Z,105
2018-08-23T13:26:25.168Z,105
2018-08-23T13:27:26.592Z,105
2018-08-23T13:28:28.011Z,105
2018-08-23T13:29:29.685Z,105
2018-08-23T13:30:31.094Z,110
2018-08-23T13:31:32.501Z,110
2018-08-23T13:32:34.103Z,110
2018-08-23T13:33:35.518Z,100
2018-08-23T13:34:37.391Z,100
2018-08-23T13:35:38.747Z,100
2018-08-23T13:36:40.354Z,115
2018-08-23T13:37:41.705Z,150
2018-08-23T13:38:43.265Z,165
2018-08-23T13:39:44.686Z,130
2018-08-23T13:40:46.243Z,120
2018-08-23T13:41:47.679Z,110
2018-08-23T13:42:49.061Z,105
2018-08-23T13:43:50.687Z,105
2018-08-23T13:44:52.088Z,125
2018-08-23T13:45:53.498Z,120
2018-08-23T13:46:55.200Z,115
2018-08-23T13:47:56.617Z,105
2018-08-23T13:48:58.280Z,100
2018-08-23T13:49:59.692Z,95
2018-08-23T13:51:01.098Z,95
2018-08-23T13:52:02.812Z,90
2018-08-23T13:53:04.228Z,80
2018-08-23T13:54:05.629Z,75
2018-08-23T13:55:07.210Z,125
2018-08-23T13:56:09.180Z,160
2018-08-23T13:57:10.641Z,170
2018-08-23T13:58:12.283Z,125
2018-08-23T13:59:13.712Z,90
2018-08-23T14:00:15.363Z,80
2018-08-23T14:01:16.796Z,85
2018-08-23T14:02:18.464Z,80
2018-08-23T14:03:19.879Z,75
2018-08-23T14:04:21.950Z,85
2018-08-23T14:05:23.356Z,90
2018-08-23T14:06:24.833Z,80
2018-08-23T14:07:26.465Z,70
2018-08-23T14:08:27.871Z,65
2018-08-23T14:09:29.286Z,70
2018-08-23T14:10:30.990Z,105
2018-08-23T14:11:32.415Z,125
2018-08-23T14:12:34.075Z,100
2018-08-23T14:13:35.494Z,85
2018-08-23T14:14:37.164Z,100
2018-08-23T14:15:38.572Z,105
2018-08-23T14:16:39.980Z,95
2018-08-23T14:17:42.075Z,80
2018-08-23T14:18:43.483Z,70
2018-08-23T14:19:45.281Z,70
2018-08-23T14:20:46.829Z,90
2018-08-23T14:21:48.235Z,85
2018-08-23T14:22:49.663Z,70
2018-08-23T14:23:51.355Z,75
2018-08-23T14:24:52.766Z,65
2018-08-23T14:25:54.176Z,60
2018-08-23T14:26:55.910Z,65
2018-08-23T14:27:57.317Z,65
2018-08-23T14:28:58.718Z,75
2018-08-23T14:30:00.404Z,65
2018-08-23T14:31:01.803Z,80
2018-08-23T14:32:03.207Z,70
2018-08-23T14:33:04.946Z,90